sensor_id;sensor_type;location;lat;lon;timestamp;temperature;humidity
74224;SHT31;62585;49.706;18.216;2022-12-07T00:01:17;2.71;92.81
74224;SHT31;62585;49.706;18.216;2022-12-07T00:03:45;2.71;92.83
74224;SHT31;62585;49.706;18.216;2022-12-07T00:06:14;2.76;92.89
74224;SHT31;62585;49.706;18.216;2022-12-07T00:08:40;2.73;93.06
74224;SHT31;62585;49.706;18.216;2022-12-07T00:11:07;2.72;92.93
74224;SHT31;62585;49.706;18.216;2022-12-07T00:13:34;2.67;93.35
74224;SHT31;62585;49.706;18.216;2022-12-07T00:16:05;2.66;93.30
74224;SHT31;62585;49.706;18.216;2022-12-07T00:18:31;2.72;92.97
74224;SHT31;62585;49.706;18.216;2022-12-07T00:21:05;2.67;93.28
74224;SHT31;62585;49.706;18.216;2022-12-07T00:23:31;2.69;93.16
74224;SHT31;62585;49.706;18.216;2022-12-07T00:26:06;2.73;92.90
74224;SHT31;62585;49.706;18.216;2022-12-07T00:28:33;2.79;92.88
74224;SHT31;62585;49.706;18.216;2022-12-07T00:31:10;2.73;92.94
74224;SHT31;62585;49.706;18.216;2022-12-07T00:33:37;2.75;93.18
74224;SHT31;62585;49.706;18.216;2022-12-07T00:36:08;2.82;92.92
74224;SHT31;62585;49.706;18.216;2022-12-07T00:38:36;2.79;93.13
74224;SHT31;62585;49.706;18.216;2022-12-07T00:41:05;2.89;92.58
74224;SHT31;62585;49.706;18.216;2022-12-07T00:43:32;2.86;92.66
74224;SHT31;62585;49.706;18.216;2022-12-07T00:46:00;2.89;92.57
74224;SHT31;62585;49.706;18.216;2022-12-07T00:48:26;2.90;92.44
74224;SHT31;62585;49.706;18.216;2022-12-07T00:50:52;2.82;92.89
74224;SHT31;62585;49.706;18.216;2022-12-07T00:53:18;2.84;92.70
74224;SHT31;62585;49.706;18.216;2022-12-07T00:55:45;2.87;92.63
74224;SHT31;62585;49.706;18.216;2022-12-07T00:58:11;2.86;92.73
74224;SHT31;62585;49.706;18.216;2022-12-07T01:00:39;2.84;92.71
74224;SHT31;62585;49.706;18.216;2022-12-07T01:03:06;2.87;92.90
74224;SHT31;62585;49.706;18.216;2022-12-07T01:05:32;2.89;92.67
74224;SHT31;62585;49.706;18.216;2022-12-07T01:07:58;2.83;92.70
74224;SHT31;62585;49.706;18.216;2022-12-07T01:10:25;2.83;92.85
74224;SHT31;62585;49.706;18.216;2022-12-07T01:12:51;2.86;92.63
74224;SHT31;62585;49.706;18.216;2022-12-07T01:15:17;2.80;93.15
74224;SHT31;62585;49.706;18.216;2022-12-07T01:17:43;2.77;93.22
74224;SHT31;62585;49.706;18.216;2022-12-07T01:20:10;2.80;93.13
74224;SHT31;62585;49.706;18.216;2022-12-07T01:22:37;2.86;92.80
74224;SHT31;62585;49.706;18.216;2022-12-07T01:25:04;2.76;93.13
74224;SHT31;62585;49.706;18.216;2022-12-07T01:27:30;2.89;93.22
74224;SHT31;62585;49.706;18.216;2022-12-07T01:29:56;2.82;93.38
74224;SHT31;62585;49.706;18.216;2022-12-07T01:32:22;2.83;93.47
74224;SHT31;62585;49.706;18.216;2022-12-07T01:34:48;2.84;93.07
74224;SHT31;62585;49.706;18.216;2022-12-07T01:37:14;2.84;93.26
74224;SHT31;62585;49.706;18.216;2022-12-07T01:39:40;2.80;93.26
74224;SHT31;62585;49.706;18.216;2022-12-07T01:42:12;3.00;92.71
74224;SHT31;62585;49.706;18.216;2022-12-07T01:47:43;2.82;93.03
74224;SHT31;62585;49.706;18.216;2022-12-07T01:50:09;2.77;93.34
74224;SHT31;62585;49.706;18.216;2022-12-07T01:52:36;2.79;93.20
74224;SHT31;62585;49.706;18.216;2022-12-07T01:55:09;2.83;93.40
74224;SHT31;62585;49.706;18.216;2022-12-07T01:57:40;2.79;93.35
74224;SHT31;62585;49.706;18.216;2022-12-07T02:00:07;2.86;93.25
74224;SHT31;62585;49.706;18.216;2022-12-07T02:05:27;2.73;93.51
74224;SHT31;62585;49.706;18.216;2022-12-07T02:07:55;2.83;93.18
74224;SHT31;62585;49.706;18.216;2022-12-07T02:10:24;2.80;93.17
74224;SHT31;62585;49.706;18.216;2022-12-07T02:18:50;2.87;92.69
74224;SHT31;62585;49.706;18.216;2022-12-07T02:24:30;2.77;92.77
74224;SHT31;62585;49.706;18.216;2022-12-07T02:27:37;2.82;93.13
74224;SHT31;62585;49.706;18.216;2022-12-07T02:30:20;2.84;92.89
74224;SHT31;62585;49.706;18.216;2022-12-07T02:33:08;2.76;92.96
74224;SHT31;62585;49.706;18.216;2022-12-07T02:35:53;2.84;92.48
74224;SHT31;62585;49.706;18.216;2022-12-07T02:38:35;2.84;92.76
74224;SHT31;62585;49.706;18.216;2022-12-07T02:41:11;2.82;92.58
74224;SHT31;62585;49.706;18.216;2022-12-07T02:43:43;2.84;92.45
74224;SHT31;62585;49.706;18.216;2022-12-07T02:46:23;2.83;92.69
74224;SHT31;62585;49.706;18.216;2022-12-07T02:48:51;2.80;92.63
74224;SHT31;62585;49.706;18.216;2022-12-07T02:51:18;2.86;92.51
74224;SHT31;62585;49.706;18.216;2022-12-07T02:53:44;2.89;91.97
74224;SHT31;62585;49.706;18.216;2022-12-07T03:02:28;2.76;92.47
74224;SHT31;62585;49.706;18.216;2022-12-07T03:10:19;2.82;91.89
74224;SHT31;62585;49.706;18.216;2022-12-07T03:18:10;2.83;91.39
74224;SHT31;62585;49.706;18.216;2022-12-07T03:20:39;2.83;91.96
74224;SHT31;62585;49.706;18.216;2022-12-07T03:23:07;2.77;91.92
74224;SHT31;62585;49.706;18.216;2022-12-07T03:25:38;2.90;91.36
74224;SHT31;62585;49.706;18.216;2022-12-07T03:28:06;2.82;91.82
74224;SHT31;62585;49.706;18.216;2022-12-07T03:30:39;2.82;91.73
74224;SHT31;62585;49.706;18.216;2022-12-07T03:33:12;2.82;91.59
74224;SHT31;62585;49.706;18.216;2022-12-07T03:36:11;2.83;91.47
74224;SHT31;62585;49.706;18.216;2022-12-07T03:39:45;2.87;91.53
74224;SHT31;62585;49.706;18.216;2022-12-07T03:41:39;2.84;91.37
74224;SHT31;62585;49.706;18.216;2022-12-07T03:44:06;2.89;91.14
74224;SHT31;62585;49.706;18.216;2022-12-07T03:49:16;2.97;90.12
74224;SHT31;62585;49.706;18.216;2022-12-07T03:54:34;2.84;91.25
74224;SHT31;62585;49.706;18.216;2022-12-07T03:57:02;2.86;90.65
74224;SHT31;62585;49.706;18.216;2022-12-07T03:59:30;2.80;90.83
74224;SHT31;62585;49.706;18.216;2022-12-07T04:01:58;2.83;91.16
74224;SHT31;62585;49.706;18.216;2022-12-07T04:04:27;2.84;90.77
74224;SHT31;62585;49.706;18.216;2022-12-07T04:06:53;2.94;90.67
74224;SHT31;62585;49.706;18.216;2022-12-07T04:09:19;2.84;90.72
74224;SHT31;62585;49.706;18.216;2022-12-07T04:11:45;2.86;90.59
74224;SHT31;62585;49.706;18.216;2022-12-07T04:14:11;2.96;90.51
74224;SHT31;62585;49.706;18.216;2022-12-07T04:16:52;2.84;91.00
74224;SHT31;62585;49.706;18.216;2022-12-07T04:19:20;2.75;91.36
74224;SHT31;62585;49.706;18.216;2022-12-07T04:21:47;2.83;90.79
74224;SHT31;62585;49.706;18.216;2022-12-07T04:24:14;2.87;90.90
74224;SHT31;62585;49.706;18.216;2022-12-07T04:26:40;2.94;90.60
74224;SHT31;62585;49.706;18.216;2022-12-07T04:29:07;2.83;90.80
74224;SHT31;62585;49.706;18.216;2022-12-07T04:31:33;2.84;90.55
74224;SHT31;62585;49.706;18.216;2022-12-07T04:33:59;2.94;89.92
74224;SHT31;62585;49.706;18.216;2022-12-07T04:36:24;2.83;90.73
74224;SHT31;62585;49.706;18.216;2022-12-07T04:38:53;2.79;90.70
74224;SHT31;62585;49.706;18.216;2022-12-07T04:41:19;2.84;90.51
74224;SHT31;62585;49.706;18.216;2022-12-07T04:43:56;2.92;90.00
74224;SHT31;62585;49.706;18.216;2022-12-07T04:46:23;2.82;90.78
74224;SHT31;62585;49.706;18.216;2022-12-07T04:48:50;2.86;90.93
74224;SHT31;62585;49.706;18.216;2022-12-07T04:51:23;2.83;90.75
74224;SHT31;62585;49.706;18.216;2022-12-07T04:53:50;2.87;90.56
74224;SHT31;62585;49.706;18.216;2022-12-07T04:56:16;2.79;90.65
74224;SHT31;62585;49.706;18.216;2022-12-07T04:58:44;2.82;90.64
74224;SHT31;62585;49.706;18.216;2022-12-07T05:01:10;2.80;90.81
74224;SHT31;62585;49.706;18.216;2022-12-07T05:03:37;2.80;90.37
74224;SHT31;62585;49.706;18.216;2022-12-07T05:06:03;2.72;90.34
74224;SHT31;62585;49.706;18.216;2022-12-07T05:08:29;2.84;90.60
74224;SHT31;62585;49.706;18.216;2022-12-07T05:10:55;2.87;90.43
74224;SHT31;62585;49.706;18.216;2022-12-07T05:13:21;2.89;90.09
74224;SHT31;62585;49.706;18.216;2022-12-07T05:15:47;2.93;89.63
74224;SHT31;62585;49.706;18.216;2022-12-07T05:18:17;2.79;90.11
74224;SHT31;62585;49.706;18.216;2022-12-07T05:20:44;2.72;90.38
74224;SHT31;62585;49.706;18.216;2022-12-07T05:23:10;2.72;90.38
74224;SHT31;62585;49.706;18.216;2022-12-07T05:25:36;2.75;90.29
74224;SHT31;62585;49.706;18.216;2022-12-07T05:28:03;2.69;90.53
74224;SHT31;62585;49.706;18.216;2022-12-07T05:30:29;2.73;90.16
74224;SHT31;62585;49.706;18.216;2022-12-07T05:32:55;2.77;90.35
74224;SHT31;62585;49.706;18.216;2022-12-07T05:35:21;2.77;90.19
74224;SHT31;62585;49.706;18.216;2022-12-07T05:37:47;2.76;90.22
74224;SHT31;62585;49.706;18.216;2022-12-07T05:40:13;2.71;89.99
74224;SHT31;62585;49.706;18.216;2022-12-07T05:42:40;2.66;90.04
74224;SHT31;62585;49.706;18.216;2022-12-07T05:45:07;2.65;90.63
74224;SHT31;62585;49.706;18.216;2022-12-07T05:47:34;2.65;90.38
74224;SHT31;62585;49.706;18.216;2022-12-07T05:49:59;2.65;90.75
74224;SHT31;62585;49.706;18.216;2022-12-07T05:52:25;2.65;90.34
74224;SHT31;62585;49.706;18.216;2022-12-07T05:54:52;2.71;90.23
74224;SHT31;62585;49.706;18.216;2022-12-07T05:57:18;2.62;90.04
74224;SHT31;62585;49.706;18.216;2022-12-07T05:59:44;2.55;90.55
74224;SHT31;62585;49.706;18.216;2022-12-07T06:02:12;2.59;90.28
74224;SHT31;62585;49.706;18.216;2022-12-07T06:04:44;2.57;90.04
74224;SHT31;62585;49.706;18.216;2022-12-07T06:07:13;2.57;90.51
74224;SHT31;62585;49.706;18.216;2022-12-07T06:09:39;2.46;90.45
74224;SHT31;62585;49.706;18.216;2022-12-07T06:12:05;2.45;90.97
74224;SHT31;62585;49.706;18.216;2022-12-07T06:14:50;2.31;91.22
74224;SHT31;62585;49.706;18.216;2022-12-07T06:17:16;2.27;91.52
74224;SHT31;62585;49.706;18.216;2022-12-07T06:19:43;2.28;91.28
74224;SHT31;62585;49.706;18.216;2022-12-07T06:22:09;2.13;91.90
74224;SHT31;62585;49.706;18.216;2022-12-07T06:24:37;2.11;92.49
74224;SHT31;62585;49.706;18.216;2022-12-07T06:27:04;2.10;92.33
74224;SHT31;62585;49.706;18.216;2022-12-07T06:29:30;2.10;92.24
74224;SHT31;62585;49.706;18.216;2022-12-07T06:31:56;2.10;92.18
74224;SHT31;62585;49.706;18.216;2022-12-07T06:34:23;2.15;92.16
74224;SHT31;62585;49.706;18.216;2022-12-07T06:36:50;2.20;92.02
74224;SHT31;62585;49.706;18.216;2022-12-07T06:39:21;2.17;92.54
74224;SHT31;62585;49.706;18.216;2022-12-07T06:41:48;2.22;91.92
74224;SHT31;62585;49.706;18.216;2022-12-07T06:44:14;2.31;91.76
74224;SHT31;62585;49.706;18.216;2022-12-07T06:46:40;2.31;91.79
74224;SHT31;62585;49.706;18.216;2022-12-07T06:49:05;2.32;91.66
74224;SHT31;62585;49.706;18.216;2022-12-07T06:51:32;2.32;91.37
74224;SHT31;62585;49.706;18.216;2022-12-07T06:54:00;2.34;91.30
74224;SHT31;62585;49.706;18.216;2022-12-07T06:56:26;2.29;91.24
74224;SHT31;62585;49.706;18.216;2022-12-07T06:58:52;2.36;91.22
74224;SHT31;62585;49.706;18.216;2022-12-07T07:01:18;2.31;91.80
74224;SHT31;62585;49.706;18.216;2022-12-07T07:03:45;2.34;91.67
74224;SHT31;62585;49.706;18.216;2022-12-07T07:06:12;2.34;91.72
74224;SHT31;62585;49.706;18.216;2022-12-07T07:08:39;2.35;91.65
74224;SHT31;62585;49.706;18.216;2022-12-07T07:11:06;2.38;91.88
74224;SHT31;62585;49.706;18.216;2022-12-07T07:13:33;2.39;91.94
74224;SHT31;62585;49.706;18.216;2022-12-07T07:15:59;2.34;91.36
74224;SHT31;62585;49.706;18.216;2022-12-07T07:18:25;2.42;91.43
74224;SHT31;62585;49.706;18.216;2022-12-07T07:20:52;2.45;91.52
74224;SHT31;62585;49.706;18.216;2022-12-07T07:23:18;2.35;91.52
74224;SHT31;62585;49.706;18.216;2022-12-07T07:25:45;2.48;91.53
74224;SHT31;62585;49.706;18.216;2022-12-07T07:28:11;2.38;91.65
74224;SHT31;62585;49.706;18.216;2022-12-07T07:30:37;2.42;91.34
74224;SHT31;62585;49.706;18.216;2022-12-07T07:33:03;2.41;90.80
74224;SHT31;62585;49.706;18.216;2022-12-07T07:35:31;2.44;90.83
74224;SHT31;62585;49.706;18.216;2022-12-07T07:37:57;2.42;90.90
74224;SHT31;62585;49.706;18.216;2022-12-07T07:40:24;2.53;90.56
74224;SHT31;62585;49.706;18.216;2022-12-07T07:42:51;2.49;90.72
74224;SHT31;62585;49.706;18.216;2022-12-07T07:45:21;2.52;91.01
74224;SHT31;62585;49.706;18.216;2022-12-07T07:47:48;2.59;90.58
74224;SHT31;62585;49.706;18.216;2022-12-07T07:50:14;2.56;90.06
74224;SHT31;62585;49.706;18.216;2022-12-07T07:52:41;2.53;90.19
74224;SHT31;62585;49.706;18.216;2022-12-07T07:55:08;2.60;90.39
74224;SHT31;62585;49.706;18.216;2022-12-07T07:57:35;2.59;89.81
74224;SHT31;62585;49.706;18.216;2022-12-07T08:00:07;2.50;89.75
74224;SHT31;62585;49.706;18.216;2022-12-07T08:02:33;2.56;90.01
74224;SHT31;62585;49.706;18.216;2022-12-07T08:04:59;2.53;90.06
74224;SHT31;62585;49.706;18.216;2022-12-07T08:07:27;2.66;88.81
74224;SHT31;62585;49.706;18.216;2022-12-07T08:09:53;2.65;89.04
74224;SHT31;62585;49.706;18.216;2022-12-07T08:12:19;2.72;89.25
74224;SHT31;62585;49.706;18.216;2022-12-07T08:14:45;2.77;88.81
74224;SHT31;62585;49.706;18.216;2022-12-07T08:17:11;2.67;88.52
74224;SHT31;62585;49.706;18.216;2022-12-07T08:19:38;2.71;89.25
74224;SHT31;62585;49.706;18.216;2022-12-07T08:22:04;2.69;88.79
74224;SHT31;62585;49.706;18.216;2022-12-07T08:24:30;2.76;88.74
74224;SHT31;62585;49.706;18.216;2022-12-07T08:26:58;2.72;88.63
74224;SHT31;62585;49.706;18.216;2022-12-07T08:29:23;2.77;88.52
74224;SHT31;62585;49.706;18.216;2022-12-07T08:31:49;2.80;88.54
74224;SHT31;62585;49.706;18.216;2022-12-07T08:34:15;2.84;88.43
74224;SHT31;62585;49.706;18.216;2022-12-07T08:36:41;2.79;88.30
74224;SHT31;62585;49.706;18.216;2022-12-07T08:39:07;2.84;87.82
74224;SHT31;62585;49.706;18.216;2022-12-07T08:41:33;2.87;88.34
74224;SHT31;62585;49.706;18.216;2022-12-07T08:43:59;2.80;88.13
74224;SHT31;62585;49.706;18.216;2022-12-07T08:46:32;2.84;87.73
74224;SHT31;62585;49.706;18.216;2022-12-07T08:49:22;2.87;87.54
74224;SHT31;62585;49.706;18.216;2022-12-07T08:51:48;2.96;87.62
74224;SHT31;62585;49.706;18.216;2022-12-07T08:54:16;2.96;87.30
74224;SHT31;62585;49.706;18.216;2022-12-07T08:56:43;3.05;87.04
74224;SHT31;62585;49.706;18.216;2022-12-07T08:59:12;3.05;86.93
74224;SHT31;62585;49.706;18.216;2022-12-07T09:01:39;3.14;87.04
74224;SHT31;62585;49.706;18.216;2022-12-07T09:04:05;3.20;87.15
74224;SHT31;62585;49.706;18.216;2022-12-07T09:06:31;3.21;86.03
74224;SHT31;62585;49.706;18.216;2022-12-07T09:08:58;3.20;86.40
74224;SHT31;62585;49.706;18.216;2022-12-07T09:11:25;3.21;85.95
74224;SHT31;62585;49.706;18.216;2022-12-07T09:13:51;3.21;86.11
74224;SHT31;62585;49.706;18.216;2022-12-07T09:16:16;3.13;85.48
74224;SHT31;62585;49.706;18.216;2022-12-07T09:18:43;3.31;85.30
74224;SHT31;62585;49.706;18.216;2022-12-07T09:21:09;3.25;84.85
74224;SHT31;62585;49.706;18.216;2022-12-07T09:23:35;3.28;84.38
74224;SHT31;62585;49.706;18.216;2022-12-07T09:26:02;3.20;84.65
74224;SHT31;62585;49.706;18.216;2022-12-07T09:28:30;3.18;84.17
74224;SHT31;62585;49.706;18.216;2022-12-07T09:30:55;3.20;84.75
74224;SHT31;62585;49.706;18.216;2022-12-07T09:33:21;3.25;84.75
74224;SHT31;62585;49.706;18.216;2022-12-07T09:35:49;3.30;84.53
74224;SHT31;62585;49.706;18.216;2022-12-07T09:38:18;3.24;84.41
74224;SHT31;62585;49.706;18.216;2022-12-07T09:40:45;3.21;84.32
74224;SHT31;62585;49.706;18.216;2022-12-07T09:43:22;3.28;84.20
74224;SHT31;62585;49.706;18.216;2022-12-07T09:45:54;3.25;84.21
74224;SHT31;62585;49.706;18.216;2022-12-07T09:48:34;3.31;84.40
74224;SHT31;62585;49.706;18.216;2022-12-07T09:51:19;3.30;84.44
74224;SHT31;62585;49.706;18.216;2022-12-07T09:53:46;3.39;84.26
74224;SHT31;62585;49.706;18.216;2022-12-07T09:56:16;3.32;84.00
74224;SHT31;62585;49.706;18.216;2022-12-07T09:58:44;3.36;84.62
74224;SHT31;62585;49.706;18.216;2022-12-07T10:01:18;3.32;84.67
74224;SHT31;62585;49.706;18.216;2022-12-07T10:03:51;3.35;85.68
74224;SHT31;62585;49.706;18.216;2022-12-07T10:06:17;3.43;85.81
74224;SHT31;62585;49.706;18.216;2022-12-07T10:08:44;3.45;85.19
74224;SHT31;62585;49.706;18.216;2022-12-07T10:11:10;3.43;85.79
74224;SHT31;62585;49.706;18.216;2022-12-07T10:13:43;3.46;85.12
74224;SHT31;62585;49.706;18.216;2022-12-07T10:16:38;3.52;85.50
74224;SHT31;62585;49.706;18.216;2022-12-07T10:19:25;3.32;85.29
74224;SHT31;62585;49.706;18.216;2022-12-07T10:22:05;3.32;86.18
74224;SHT31;62585;49.706;18.216;2022-12-07T10:24:34;3.28;86.06
74224;SHT31;62585;49.706;18.216;2022-12-07T10:27:00;3.28;86.62
74224;SHT31;62585;49.706;18.216;2022-12-07T10:29:31;3.17;86.40
74224;SHT31;62585;49.706;18.216;2022-12-07T10:32:25;3.14;87.21
74224;SHT31;62585;49.706;18.216;2022-12-07T10:34:48;3.22;86.99
74224;SHT31;62585;49.706;18.216;2022-12-07T10:37:15;3.25;86.38
74224;SHT31;62585;49.706;18.216;2022-12-07T10:39:52;3.30;86.46
74224;SHT31;62585;49.706;18.216;2022-12-07T10:42:23;3.38;85.86
74224;SHT31;62585;49.706;18.216;2022-12-07T10:45:13;3.35;85.90
74224;SHT31;62585;49.706;18.216;2022-12-07T10:47:48;3.45;85.80
74224;SHT31;62585;49.706;18.216;2022-12-07T10:53:11;3.68;85.25
74224;SHT31;62585;49.706;18.216;2022-12-07T10:56:24;3.79;85.65
74224;SHT31;62585;49.706;18.216;2022-12-07T10:59:05;3.82;83.80
74224;SHT31;62585;49.706;18.216;2022-12-07T11:01:49;3.80;83.03
74224;SHT31;62585;49.706;18.216;2022-12-07T11:04:35;3.94;83.73
74224;SHT31;62585;49.706;18.216;2022-12-07T11:07:14;3.96;83.33
74224;SHT31;62585;49.706;18.216;2022-12-07T11:18:07;4.03;82.50
74224;SHT31;62585;49.706;18.216;2022-12-07T11:20:50;3.89;82.16
74224;SHT31;62585;49.706;18.216;2022-12-07T11:37:16;3.73;82.32
74224;SHT31;62585;49.706;18.216;2022-12-07T11:39:51;3.66;82.56
74224;SHT31;62585;49.706;18.216;2022-12-07T11:42:25;3.65;83.34
74224;SHT31;62585;49.706;18.216;2022-12-07T11:45:12;3.58;82.55
74224;SHT31;62585;49.706;18.216;2022-12-07T11:47:48;3.43;82.52
74224;SHT31;62585;49.706;18.216;2022-12-07T11:50:42;3.48;83.27
74224;SHT31;62585;49.706;18.216;2022-12-07T12:00:51;6.61;72.21
74224;SHT31;62585;49.706;18.216;2022-12-07T12:03:28;5.63;74.73
74224;SHT31;62585;49.706;18.216;2022-12-07T12:05:56;4.45;78.59
74224;SHT31;62585;49.706;18.216;2022-12-07T12:08:30;4.14;80.42
74224;SHT31;62585;49.706;18.216;2022-12-07T12:20:03;3.76;82.25
74224;SHT31;62585;49.706;18.216;2022-12-07T12:22:40;3.79;82.11
74224;SHT31;62585;49.706;18.216;2022-12-07T12:25:20;3.93;82.23
74224;SHT31;62585;49.706;18.216;2022-12-07T12:27:48;3.91;81.72
74224;SHT31;62585;49.706;18.216;2022-12-07T12:33:15;5.09;78.40
74224;SHT31;62585;49.706;18.216;2022-12-07T12:35:42;5.68;75.32
74224;SHT31;62585;49.706;18.216;2022-12-07T12:38:32;4.73;76.71
74224;SHT31;62585;49.706;18.216;2022-12-07T12:41:00;4.52;78.33
74224;SHT31;62585;49.706;18.216;2022-12-07T12:43:53;4.86;77.01
74224;SHT31;62585;49.706;18.216;2022-12-07T12:51:51;5.01;74.61
74224;SHT31;62585;49.706;18.216;2022-12-07T13:01:55;4.51;74.29
74224;SHT31;62585;49.706;18.216;2022-12-07T13:04:25;4.48;73.72
74224;SHT31;62585;49.706;18.216;2022-12-07T13:06:52;4.34;74.29
74224;SHT31;62585;49.706;18.216;2022-12-07T13:09:27;4.21;74.39
74224;SHT31;62585;49.706;18.216;2022-12-07T13:12:03;4.17;74.88
74224;SHT31;62585;49.706;18.216;2022-12-07T13:17:03;4.01;75.66
74224;SHT31;62585;49.706;18.216;2022-12-07T13:22:49;3.99;75.49
74224;SHT31;62585;49.706;18.216;2022-12-07T13:25:28;4.00;75.30
74224;SHT31;62585;49.706;18.216;2022-12-07T13:28:04;4.13;74.51
74224;SHT31;62585;49.706;18.216;2022-12-07T13:30:42;4.06;75.56
74224;SHT31;62585;49.706;18.216;2022-12-07T13:33:10;4.03;73.43
74224;SHT31;62585;49.706;18.216;2022-12-07T13:35:37;3.93;75.36
74224;SHT31;62585;49.706;18.216;2022-12-07T13:38:22;3.89;72.89
74224;SHT31;62585;49.706;18.216;2022-12-07T13:41:12;3.90;72.44
74224;SHT31;62585;49.706;18.216;2022-12-07T13:43:48;3.75;71.48
74224;SHT31;62585;49.706;18.216;2022-12-07T13:46:14;3.76;71.64
74224;SHT31;62585;49.706;18.216;2022-12-07T13:48:49;3.69;71.35
74224;SHT31;62585;49.706;18.216;2022-12-07T13:51:26;3.58;71.30
74224;SHT31;62585;49.706;18.216;2022-12-07T13:53:55;3.52;71.40
74224;SHT31;62585;49.706;18.216;2022-12-07T13:56:27;3.45;72.14
74224;SHT31;62585;49.706;18.216;2022-12-07T13:58:54;3.42;71.57
74224;SHT31;62585;49.706;18.216;2022-12-07T14:01:20;3.41;71.26
74224;SHT31;62585;49.706;18.216;2022-12-07T14:03:46;3.42;71.37
74224;SHT31;62585;49.706;18.216;2022-12-07T14:06:18;3.49;70.67
74224;SHT31;62585;49.706;18.216;2022-12-07T14:08:45;3.38;71.73
74224;SHT31;62585;49.706;18.216;2022-12-07T14:11:17;3.43;72.07
74224;SHT31;62585;49.706;18.216;2022-12-07T14:16:23;3.30;72.19
74224;SHT31;62585;49.706;18.216;2022-12-07T14:18:54;3.34;72.53
74224;SHT31;62585;49.706;18.216;2022-12-07T14:21:23;3.27;73.64
74224;SHT31;62585;49.706;18.216;2022-12-07T14:24:08;3.25;73.18
74224;SHT31;62585;49.706;18.216;2022-12-07T14:26:34;3.31;72.56
74224;SHT31;62585;49.706;18.216;2022-12-07T14:31:44;3.27;72.94
74224;SHT31;62585;49.706;18.216;2022-12-07T14:34:13;3.18;74.28
74224;SHT31;62585;49.706;18.216;2022-12-07T14:36:39;3.17;74.11
74224;SHT31;62585;49.706;18.216;2022-12-07T14:39:05;3.17;73.98
74224;SHT31;62585;49.706;18.216;2022-12-07T14:41:31;3.21;74.14
74224;SHT31;62585;49.706;18.216;2022-12-07T14:44:16;3.18;74.38
74224;SHT31;62585;49.706;18.216;2022-12-07T14:46:42;3.28;74.59
74224;SHT31;62585;49.706;18.216;2022-12-07T14:49:08;3.18;74.80
74224;SHT31;62585;49.706;18.216;2022-12-07T14:51:36;3.20;75.14
74224;SHT31;62585;49.706;18.216;2022-12-07T14:54:04;3.22;75.50
74224;SHT31;62585;49.706;18.216;2022-12-07T14:56:30;3.13;76.31
74224;SHT31;62585;49.706;18.216;2022-12-07T14:58:56;3.17;76.28
74224;SHT31;62585;49.706;18.216;2022-12-07T15:01:23;3.11;76.43
74224;SHT31;62585;49.706;18.216;2022-12-07T15:03:49;3.24;76.20
74224;SHT31;62585;49.706;18.216;2022-12-07T15:06:17;3.15;76.61
74224;SHT31;62585;49.706;18.216;2022-12-07T15:08:43;3.22;76.65
74224;SHT31;62585;49.706;18.216;2022-12-07T15:11:17;3.18;76.57
74224;SHT31;62585;49.706;18.216;2022-12-07T15:13:43;3.28;77.10
74224;SHT31;62585;49.706;18.216;2022-12-07T15:16:28;3.30;77.50
74224;SHT31;62585;49.706;18.216;2022-12-07T15:18:53;3.25;77.36
74224;SHT31;62585;49.706;18.216;2022-12-07T15:21:19;3.25;77.53
74224;SHT31;62585;49.706;18.216;2022-12-07T15:23:48;3.22;77.91
74224;SHT31;62585;49.706;18.216;2022-12-07T15:26:14;3.25;77.94
74224;SHT31;62585;49.706;18.216;2022-12-07T15:28:41;3.10;78.09
74224;SHT31;62585;49.706;18.216;2022-12-07T15:31:14;3.10;78.17
74224;SHT31;62585;49.706;18.216;2022-12-07T15:33:42;3.27;78.05
74224;SHT31;62585;49.706;18.216;2022-12-07T15:36:13;3.27;77.54
74224;SHT31;62585;49.706;18.216;2022-12-07T15:38:43;3.17;77.61
74224;SHT31;62585;49.706;18.216;2022-12-07T15:41:09;3.18;77.91
74224;SHT31;62585;49.706;18.216;2022-12-07T15:43:36;3.13;78.54
74224;SHT31;62585;49.706;18.216;2022-12-07T15:46:20;3.11;78.56
74224;SHT31;62585;49.706;18.216;2022-12-07T15:48:46;3.08;78.80
74224;SHT31;62585;49.706;18.216;2022-12-07T15:51:12;2.99;79.07
74224;SHT31;62585;49.706;18.216;2022-12-07T15:53:38;2.94;79.64
74224;SHT31;62585;49.706;18.216;2022-12-07T15:56:08;2.86;79.95
74224;SHT31;62585;49.706;18.216;2022-12-07T15:58:34;2.94;79.82
74224;SHT31;62585;49.706;18.216;2022-12-07T16:01:00;2.94;79.70
74224;SHT31;62585;49.706;18.216;2022-12-07T16:03:29;2.86;80.43
74224;SHT31;62585;49.706;18.216;2022-12-07T16:05:54;2.94;80.19
74224;SHT31;62585;49.706;18.216;2022-12-07T16:08:21;2.87;80.54
74224;SHT31;62585;49.706;18.216;2022-12-07T16:10:46;2.86;80.36
74224;SHT31;62585;49.706;18.216;2022-12-07T16:13:12;2.86;80.62
74224;SHT31;62585;49.706;18.216;2022-12-07T16:15:41;2.87;80.80
74224;SHT31;62585;49.706;18.216;2022-12-07T16:18:08;2.87;80.72
74224;SHT31;62585;49.706;18.216;2022-12-07T16:20:33;3.01;80.29
74224;SHT31;62585;49.706;18.216;2022-12-07T16:22:59;3.05;80.36
74224;SHT31;62585;49.706;18.216;2022-12-07T16:25:25;3.10;79.96
74224;SHT31;62585;49.706;18.216;2022-12-07T16:27:52;3.05;80.38
74224;SHT31;62585;49.706;18.216;2022-12-07T16:30:18;3.17;79.66
74224;SHT31;62585;49.706;18.216;2022-12-07T16:32:45;3.18;79.87
74224;SHT31;62585;49.706;18.216;2022-12-07T16:35:11;3.14;79.91
74224;SHT31;62585;49.706;18.216;2022-12-07T16:37:37;3.08;80.06
74224;SHT31;62585;49.706;18.216;2022-12-07T16:40:04;3.04;80.00
74224;SHT31;62585;49.706;18.216;2022-12-07T16:42:34;3.11;79.99
74224;SHT31;62585;49.706;18.216;2022-12-07T16:45:00;3.07;79.76
74224;SHT31;62585;49.706;18.216;2022-12-07T16:47:27;3.11;79.49
74224;SHT31;62585;49.706;18.216;2022-12-07T16:49:53;3.05;79.94
74224;SHT31;62585;49.706;18.216;2022-12-07T16:52:20;3.05;79.90
74224;SHT31;62585;49.706;18.216;2022-12-07T16:54:48;3.11;79.75
74224;SHT31;62585;49.706;18.216;2022-12-07T16:57:14;3.14;79.52
74224;SHT31;62585;49.706;18.216;2022-12-07T16:59:39;3.11;79.60
74224;SHT31;62585;49.706;18.216;2022-12-07T17:02:05;3.15;79.55
74224;SHT31;62585;49.706;18.216;2022-12-07T17:04:33;3.18;79.62
74224;SHT31;62585;49.706;18.216;2022-12-07T17:06:59;3.03;80.12
74224;SHT31;62585;49.706;18.216;2022-12-07T17:09:25;3.07;80.18
74224;SHT31;62585;49.706;18.216;2022-12-07T17:11:51;2.94;80.56
74224;SHT31;62585;49.706;18.216;2022-12-07T17:14:17;2.99;80.40
74224;SHT31;62585;49.706;18.216;2022-12-07T17:17:01;3.01;80.66
74224;SHT31;62585;49.706;18.216;2022-12-07T17:19:27;2.99;80.65
74224;SHT31;62585;49.706;18.216;2022-12-07T17:21:53;2.96;81.01
74224;SHT31;62585;49.706;18.216;2022-12-07T17:24:19;2.90;81.10
74224;SHT31;62585;49.706;18.216;2022-12-07T17:26:46;2.94;80.99
74224;SHT31;62585;49.706;18.216;2022-12-07T17:29:13;3.03;80.56
74224;SHT31;62585;49.706;18.216;2022-12-07T17:31:39;2.93;81.01